Historique des mesures à Cassis (13260), France
Quotidien Résumé Fevrier 11, 2018 Unités:  Métrique/US    US   Métrique
« Précédent (Jour)
Suivant (Jour) »
Quotidien Hebdomadaire Mensuel Annuel Période au choix
  Maximum: Minimum: Moyenne:
Température: 32 °F /  TemperatureC °C 38.3 °F /  3.5 °C 45.7 °F /  7.6 °C
Point de rosée: 32 °F /  DewpointC °C 26.4 °F /  -3.1 °C 32.2 °F /  0.1 °C
Humidité: Humidity % 45 % 56 %
Vitesse du vent: WindSpeedKMH mph /  0 km/h - 10.2 mph /  16.4 km/h
Rafales: WindSpeedGustKMH mph /  0 km/h - -
Vent:- - SW
Pression: 0 in /  PressurehPa hPa 29.7 in /  1006.7 hPa -
Précipitations: 0.0 in /  0 mm    
Historical Graphs
 
 
Mesures pour : Fevrier 11, 2018
Heure Temperature Point de rosée Pression Vent Vitesse du vent Rafales Humidité Pluie (par heure)
32 °F /  TemperatureC °C 32 °F /  DewpointC °C 0 in /  PressurehPa hPa Calm     Humidity % HourlyPrecipMM in /  0 mm
00:12 40.6 °F /  4.8 °C 28.2 °F /  -2.1 °C 29.8 in /  1009.7 hPa NNW 4.0 mph /  6.4 km/h 10.8 mph /  17.4 km/h 61 % 0.0 in /  0 mm
01:12 39.4 °F /  4.1 °C 27.3 °F /  -2.6 °C 29.8 in /  1009.7 hPa North 12.6 mph /  20.3 km/h 16.3 mph /  26.2 km/h 62 % 0.0 in /  0 mm
02:12 40.3 °F /  4.6 °C 27.5 °F /  -2.5 °C 29.8 in /  1009.4 hPa NNE 8.7 mph /  14 km/h 19.5 mph /  31.4 km/h 60 % 0.0 in /  0 mm
03:12 40.1 °F /  4.5 °C 27 °F /  -2.8 °C 29.8 in /  1009.4 hPa NW 16.3 mph /  26.2 km/h 21.9 mph /  35.2 km/h 59 % 0.0 in /  0 mm
04:12 39.7 °F /  4.3 °C 26.4 °F /  -3.1 °C 29.8 in /  1009.4 hPa NW 13.0 mph /  20.9 km/h 16.3 mph /  26.2 km/h 59 % 0.0 in /  0 mm
05:12 38.3 °F /  3.5 °C 26.4 °F /  -3.1 °C 29.8 in /  1009.0 hPa North 7.6 mph /  12.2 km/h 8.7 mph /  14 km/h 62 % 0.0 in /  0 mm
06:12 39.6 °F /  4.2 °C 26.8 °F /  -2.9 °C 29.8 in /  1009.0 hPa WNW 2.9 mph /  4.7 km/h 16.6 mph /  26.7 km/h 60 % 0.0 in /  0 mm
07:12 40.5 °F /  4.7 °C 26.8 °F /  -2.9 °C 29.8 in /  1009.0 hPa NNW 4.7 mph /  7.6 km/h 10.5 mph /  16.9 km/h 58 % 0.0 in /  0 mm
08:12 41.2 °F /  5.1 °C 26.6 °F /  -3.0 °C 29.8 in /  1009.4 hPa Calm   8.2 mph /  13.2 km/h 56 % 0.0 in /  0 mm
09:12 42.6 °F /  5.9 °C 27.1 °F /  -2.7 °C 29.8 in /  1009.7 hPa North 14.3 mph /  23 km/h 15.1 mph /  24.3 km/h 54 % 0.0 in /  0 mm
10:12 45.1 °F /  7.3 °C 28.9 °F /  -1.7 °C 29.8 in /  1009.7 hPa NW 2.1 mph /  3.4 km/h 13.7 mph /  22 km/h 53 % 0.0 in /  0 mm
11:12 47.8 °F /  8.8 °C 29.5 °F /  -1.4 °C 29.8 in /  1009.7 hPa WNW 4.0 mph /  6.4 km/h 7.2 mph /  11.6 km/h 49 % 0.0 in /  0 mm
12:12 50.5 °F /  10.3 °C 29.8 °F /  -1.2 °C 29.8 in /  1009.4 hPa North 5.5 mph /  8.9 km/h 14.3 mph /  23 km/h 45 % 0.0 in /  0 mm
13:12 51.4 °F /  10.8 °C 32.4 °F /  0.2 °C 29.8 in /  1008.7 hPa NW 8.7 mph /  14 km/h 23.8 mph /  38.3 km/h 48 % 0.0 in /  0 mm
14:12 52.5 °F /  11.4 °C 33.3 °F /  0.7 °C 29.8 in /  1008.4 hPa WNW 20.9 mph /  33.6 km/h 20.9 mph /  33.6 km/h 48 % 0.0 in /  0 mm
15:12 51.6 °F /  10.9 °C 36.3 °F /  2.4 °C 29.8 in /  1008.0 hPa NW 28.2 mph /  45.4 km/h 28.2 mph /  45.4 km/h 56 % 0.0 in /  0 mm
16:12 52.5 °F /  11.4 °C 39 °F /  3.9 °C 29.7 in /  1007.3 hPa West 16.9 mph /  27.2 km/h 18.0 mph /  29 km/h 60 % 0.0 in /  0 mm
17:12 50.7 °F /  10.4 °C 38.8 °F /  3.8 °C 29.7 in /  1007.3 hPa West 6.1 mph /  9.8 km/h 6.1 mph /  9.8 km/h 64 % 0.0 in /  0 mm
18:12 50.2 °F /  10.1 °C 40.5 °F /  4.7 °C 29.7 in /  1007.3 hPa WNW 5.8 mph /  9.3 km/h 5.8 mph /  9.3 km/h 69 % 0.0 in /  0 mm
19:12 49.8 °F /  9.9 °C 40.8 °F /  4.9 °C 29.7 in /  1007.3 hPa Calm   5.0 mph /  8 km/h 71 % 0.0 in /  0 mm
20:12 50.5 °F /  10.3 °C 40.8 °F /  4.9 °C 29.7 in /  1007.3 hPa WNW 25.3 mph /  40.7 km/h 25.3 mph /  40.7 km/h 69 % 0.0 in /  0 mm
21:12 51.1 °F /  10.6 °C 39.4 °F /  4.1 °C 29.7 in /  1007.3 hPa NW 12.2 mph /  19.6 km/h 12.2 mph /  19.6 km/h 64 % 0.0 in /  0 mm
22:12 51.1 °F /  10.6 °C 37.8 °F /  3.2 °C 29.7 in /  1006.7 hPa West 20.9 mph /  33.6 km/h 20.9 mph /  33.6 km/h 60 % 0.0 in /  0 mm
23:12 50.5 °F /  10.3 °C 35.8 °F /  2.1 °C 29.7 in /  1007.0 hPa NW 14.3 mph /  23 km/h 29.1 mph /  46.8 km/h 57 % 0.0 in /  0 mm
Observations météo à CASSIS
WU-History script by Weather Underground - 1 mb